Time,TemperatureF,DewpointF,PressureIn,WindDirection,WindDirectionDegrees,WindSpeedMPH,WindSpeedGustMPH,Humidity,HourlyPrecipIn,Conditions,Clouds,dailyrainin,SolarRadiationWatts/m^2,SoftwareType,DateUTC
2013-04-11 00:04:00,50.7,46.0,30.15,WNW,301,0.0,5.0,84,0.00,,,0.00,0,weatherlink.com 1.10,2013-04-11 07:04:00,
2013-04-11 00:19:00,49.5,45.0,30.14,West,270,0.0,1.0,84,0.00,,,0.00,0,weatherlink.com 1.10,2013-04-11 07:19:00,
2013-04-11 00:34:00,48.6,44.0,30.14,West,269,2.0,2.0,85,0.00,,,0.00,0,weatherlink.com 1.10,2013-04-11 07:34:00,
2013-04-11 00:49:00,48.7,44.0,30.14,West,268,3.0,4.0,85,0.00,,,0.00,0,weatherlink.com 1.10,2013-04-11 07:49:00,
2013-04-11 01:04:00,49.6,45.0,30.14,WNW,285,0.0,7.0,85,0.00,,,0.00,0,weatherlink.com 1.10,2013-04-11 08:04:00,
2013-04-11 01:19:00,49.0,45.0,30.14,WNW,297,5.0,5.0,85,0.00,,,0.00,0,weatherlink.com 1.10,2013-04-11 08:19:00,
2013-04-11 01:34:00,49.1,45.0,30.13,NW,304,0.0,5.0,85,0.00,,,0.00,0,weatherlink.com 1.10,2013-04-11 08:34:00,
2013-04-11 01:49:00,48.6,44.0,30.12,West,271,1.0,4.0,85,0.00,,,0.00,0,weatherlink.com 1.10,2013-04-11 08:49:00,
2013-04-11 02:05:00,47.8,44.0,30.12,ESE,123,1.0,4.0,85,0.00,,,0.00,0,weatherlink.com 1.10,2013-04-11 09:05:00,
2013-04-11 02:20:00,48.6,44.0,30.11,NW,313,0.0,9.0,85,0.00,,,0.00,0,weatherlink.com 1.10,2013-04-11 09:20:00,
2013-04-11 02:35:00,48.2,44.0,30.11,WSW,246,2.0,4.0,85,0.00,,,0.00,0,weatherlink.com 1.10,2013-04-11 09:35:00,
2013-04-11 02:50:00,48.8,45.0,30.10,SW,235,5.0,9.0,85,0.00,,,0.00,0,weatherlink.com 1.10,2013-04-11 09:50:00,
2013-04-11 03:05:00,49.1,45.0,30.10,WNW,288,4.0,9.0,85,0.00,,,0.00,0,weatherlink.com 1.10,2013-04-11 10:05:00,
2013-04-11 03:20:00,49.6,45.0,30.09,NW,312,2.0,9.0,84,0.00,,,0.00,0,weatherlink.com 1.10,2013-04-11 10:20:00,
2013-04-11 03:35:00,49.2,45.0,30.09,NNW,338,1.0,10.0,84,0.00,,,0.00,0,weatherlink.com 1.10,2013-04-11 10:35:00,
2013-04-11 03:50:00,48.9,44.0,30.09,WNW,284,3.0,6.0,84,0.00,,,0.00,0,weatherlink.com 1.10,2013-04-11 10:50:00,
2013-04-11 04:05:00,48.5,44.0,30.10,NW,320,1.0,5.0,84,0.00,,,0.00,0,weatherlink.com 1.10,2013-04-11 11:05:00,
2013-04-11 04:20:00,48.3,44.0,30.09,NW,315,0.0,3.0,84,0.00,,,0.00,0,weatherlink.com 1.10,2013-04-11 11:20:00,
2013-04-11 04:35:00,46.6,42.0,30.09,NE,56,1.0,4.0,84,0.00,,,0.00,0,weatherlink.com 1.10,2013-04-11 11:35:00,
2013-04-11 04:50:00,46.0,42.0,30.08,NE,55,0.0,2.0,85,0.00,,,0.00,0,weatherlink.com 1.10,2013-04-11 11:50:00,
2013-04-11 05:05:00,45.4,41.0,30.07,ENE,58,0.0,3.0,85,0.00,,,0.00,0,weatherlink.com 1.10,2013-04-11 12:05:00,
2013-04-11 05:20:00,45.3,41.0,30.07,ENE,58,0.0,1.0,85,0.00,,,0.00,0,weatherlink.com 1.10,2013-04-11 12:20:00,
2013-04-11 05:35:00,44.8,41.0,30.07,North,9,2.0,3.0,85,0.00,,,0.00,0,weatherlink.com 1.10,2013-04-11 12:35:00,
2013-04-11 05:50:00,43.8,40.0,30.06,NE,51,0.0,5.0,85,0.00,,,0.00,0,weatherlink.com 1.10,2013-04-11 12:50:00,
2013-04-11 06:05:00,44.0,40.0,30.07,NE,37,3.0,4.0,85,0.00,,,0.00,0,weatherlink.com 1.10,2013-04-11 13:05:00,
2013-04-11 06:20:00,44.7,41.0,30.07,WNW,296,3.0,5.0,85,0.00,,,0.00,0,weatherlink.com 1.10,2013-04-11 13:20:00,
2013-04-11 06:35:00,45.6,41.0,30.07,North,360,1.0,5.0,85,0.00,,,0.00,0,weatherlink.com 1.10,2013-04-11 13:35:00,
2013-04-11 06:50:00,46.0,42.0,30.06,North,9,1.0,4.0,85,0.00,,,0.00,9,weatherlink.com 1.10,2013-04-11 13:50:00,
2013-04-11 07:05:00,46.3,42.0,30.06,NNE,13,4.0,7.0,85,0.00,,,0.00,19,weatherlink.com 1.10,2013-04-11 14:05:00,
2013-04-11 07:20:00,47.2,43.0,30.07,WNW,297,2.0,6.0,85,0.00,,,0.00,28,weatherlink.com 1.10,2013-04-11 14:20:00,
2013-04-11 07:35:00,47.5,43.0,30.07,WNW,296,0.0,4.0,85,0.00,,,0.00,35,weatherlink.com 1.10,2013-04-11 14:35:00,
2013-04-11 07:50:00,48.5,44.0,30.07,SW,223,2.0,7.0,85,0.00,,,0.00,69,weatherlink.com 1.10,2013-04-11 14:50:00,
2013-04-11 08:05:00,49.2,45.0,30.08,NW,318,1.0,4.0,84,0.00,,,0.00,229,weatherlink.com 1.10,2013-04-11 15:05:00,
2013-04-11 08:20:00,49.9,45.0,30.07,NNE,15,2.0,4.0,84,0.00,,,0.00,258,weatherlink.com 1.10,2013-04-11 15:20:00,
2013-04-11 08:35:00,50.6,46.0,30.07,WNW,283,2.0,4.0,83,0.00,,,0.00,329,weatherlink.com 1.10,2013-04-11 15:35:00,
2013-04-11 08:50:00,51.0,46.0,30.06,WSW,247,0.0,4.0,84,0.00,,,0.00,415,weatherlink.com 1.10,2013-04-11 15:50:00,
2013-04-11 09:05:00,51.4,46.0,30.07,WNW,296,4.0,7.0,83,0.00,,,0.00,446,weatherlink.com 1.10,2013-04-11 16:05:00,
2013-04-11 09:21:00,52.3,47.0,30.06,West,267,2.0,7.0,83,0.00,,,0.00,487,weatherlink.com 1.10,2013-04-11 16:21:00,
2013-04-11 09:36:00,53.1,47.0,30.06,West,273,3.0,7.0,81,0.00,,,0.00,557,weatherlink.com 1.10,2013-04-11 16:36:00,
2013-04-11 09:51:00,52.4,46.0,30.06,West,270,8.0,13.0,80,0.00,,,0.00,608,weatherlink.com 1.10,2013-04-11 16:51:00,
2013-04-11 10:06:00,52.6,47.0,30.06,WNW,291,7.0,15.0,81,0.00,,,0.00,650,weatherlink.com 1.10,2013-04-11 17:06:00,
2013-04-11 10:36:00,55.9,49.0,30.05,WSW,252,10.0,16.0,77,0.00,,,0.00,737,weatherlink.com 1.10,2013-04-11 17:36:00,
2013-04-11 10:51:00,56.1,48.0,30.04,WNW,292,13.0,15.0,75,0.00,,,0.00,784,weatherlink.com 1.10,2013-04-11 17:51:00,
2013-04-11 11:06:00,55.5,48.0,30.04,WSW,243,6.0,18.0,76,0.00,,,0.00,816,weatherlink.com 1.10,2013-04-11 18:06:00,
2013-04-11 11:21:00,54.8,47.0,30.04,WSW,257,3.0,16.0,75,0.00,,,0.00,837,weatherlink.com 1.10,2013-04-11 18:21:00,
2013-04-11 11:36:00,53.9,47.0,30.03,WNW,295,18.0,23.0,76,0.00,,,0.00,809,weatherlink.com 1.10,2013-04-11 18:36:00,
2013-04-11 12:06:00,58.5,49.0,30.04,WNW,301,6.0,29.0,70,0.00,,,0.00,944,weatherlink.com 1.10,2013-04-11 19:06:00,
2013-04-11 12:21:00,59.6,48.0,30.04,NW,313,10.0,22.0,65,0.00,,,0.00,483,weatherlink.com 1.10,2013-04-11 19:21:00,
2013-04-11 12:36:00,56.4,47.0,30.04,WNW,295,2.0,15.0,72,0.00,,,0.00,1016,weatherlink.com 1.10,2013-04-11 19:36:00,
2013-04-11 12:51:00,57.1,48.0,30.03,West,273,4.0,17.0,72,0.00,,,0.00,831,weatherlink.com 1.10,2013-04-11 19:51:00,
2013-04-11 13:06:00,59.9,48.0,30.02,WNW,286,5.0,17.0,66,0.00,,,0.00,889,weatherlink.com 1.10,2013-04-11 20:06:00,
2013-04-11 13:21:00,56.8,47.0,30.01,NW,325,12.0,17.0,70,0.00,,,0.00,837,weatherlink.com 1.10,2013-04-11 20:21:00,
2013-04-11 13:37:00,56.0,47.0,30.00,West,271,9.0,18.0,73,0.00,,,0.00,853,weatherlink.com 1.10,2013-04-11 20:37:00,
2013-04-11 13:51:00,55.9,47.0,29.99,WNW,290,8.0,16.0,72,0.00,,,0.00,856,weatherlink.com 1.10,2013-04-11 20:51:00,
2013-04-11 14:13:00,57.4,48.0,29.97,West,269,5.0,16.0,70,0.00,,,0.00,997,weatherlink.com 1.10,2013-04-11 21:13:00,
2013-04-11 14:22:00,55.9,47.0,29.98,WSW,258,7.0,19.0,73,0.00,,,0.00,990,weatherlink.com 1.10,2013-04-11 21:22:00,
2013-04-11 14:37:00,56.1,48.0,29.97,WSW,258,12.0,23.0,73,0.00,,,0.00,958,weatherlink.com 1.10,2013-04-11 21:37:00,
2013-04-11 14:52:00,55.4,47.0,29.97,WNW,286,12.0,19.0,73,0.00,,,0.00,719,weatherlink.com 1.10,2013-04-11 21:52:00,
2013-04-11 15:07:00,55.5,47.0,29.97,NW,316,10.0,17.0,72,0.00,,,0.00,844,weatherlink.com 1.10,2013-04-11 22:07:00,
2013-04-11 15:37:00,56.8,48.0,29.96,NW,309,15.0,26.0,72,0.00,,,0.00,758,weatherlink.com 1.10,2013-04-11 22:37:00,
2013-04-11 15:52:00,55.7,47.0,29.95,West,261,11.0,21.0,72,0.00,,,0.00,721,weatherlink.com 1.10,2013-04-11 22:52:00,
2013-04-11 16:07:00,55.3,46.0,29.95,West,279,9.0,21.0,71,0.00,,,0.00,682,weatherlink.com 1.10,2013-04-11 23:07:00,
2013-04-11 16:22:00,54.7,46.0,29.94,WNW,290,13.0,19.0,73,0.00,,,0.00,638,weatherlink.com 1.10,2013-04-11 23:22:00,
2013-04-11 16:37:00,54.9,46.0,29.94,WNW,287,18.0,20.0,72,0.00,,,0.00,596,weatherlink.com 1.10,2013-04-11 23:37:00,
2013-04-11 16:52:00,55.4,46.0,29.93,SW,220,11.0,18.0,71,0.00,,,0.00,545,weatherlink.com 1.10,2013-04-11 23:52:00,
2013-04-11 17:07:00,54.9,46.0,29.93,WNW,293,17.0,24.0,71,0.00,,,0.00,494,weatherlink.com 1.10,2013-04-12 00:07:00,
2013-04-11 17:22:00,55.1,46.0,29.92,WNW,290,5.0,20.0,72,0.00,,,0.00,446,weatherlink.com 1.10,2013-04-12 00:22:00,
2013-04-11 17:37:00,55.4,46.0,29.91,WSW,252,13.0,15.0,71,0.00,,,0.00,397,weatherlink.com 1.10,2013-04-12 00:37:00,
2013-04-11 17:52:00,53.3,46.0,29.92,WNW,282,16.0,21.0,75,0.00,,,0.00,341,weatherlink.com 1.10,2013-04-12 00:52:00,
2013-04-11 18:07:00,54.4,46.0,29.91,West,259,7.0,14.0,74,0.00,,,0.00,287,weatherlink.com 1.10,2013-04-12 01:07:00,
2013-04-11 18:22:00,53.3,46.0,29.92,WNW,290,13.0,19.0,75,0.00,,,0.00,232,weatherlink.com 1.10,2013-04-12 01:22:00,
2013-04-11 18:37:00,53.9,47.0,29.91,NW,320,6.0,15.0,76,0.00,,,0.00,178,weatherlink.com 1.10,2013-04-12 01:37:00,
2013-04-11 18:52:00,55.0,46.0,29.90,WNW,293,2.0,9.0,73,0.00,,,0.00,120,weatherlink.com 1.10,2013-04-12 01:52:00,
2013-04-11 19:07:00,54.2,46.0,29.90,NNW,333,4.0,12.0,74,0.00,,,0.00,70,weatherlink.com 1.10,2013-04-12 02:07:00,
2013-04-11 19:22:00,54.0,46.0,29.90,SSW,200,2.0,7.0,75,0.00,,,0.00,37,weatherlink.com 1.10,2013-04-12 02:22:00,
2013-04-11 19:37:00,53.2,45.0,29.89,West,279,3.0,7.0,74,0.00,,,0.00,12,weatherlink.com 1.10,2013-04-12 02:37:00,
2013-04-11 19:52:00,52.2,45.0,29.89,NW,313,2.0,8.0,76,0.00,,,0.00,0,weatherlink.com 1.10,2013-04-12 02:52:00,
2013-04-11 20:07:00,51.5,44.0,29.89,SE,144,0.0,3.0,76,0.00,,,0.00,0,weatherlink.com 1.10,2013-04-12 03:07:00,
2013-04-11 20:22:00,50.2,43.0,29.89,SE,144,1.0,1.0,77,0.00,,,0.00,0,weatherlink.com 1.10,2013-04-12 03:22:00,
2013-04-11 20:37:00,49.4,43.0,29.89,NW,319,3.0,5.0,78,0.00,,,0.00,0,weatherlink.com 1.10,2013-04-12 03:37:00,
2013-04-11 20:52:00,49.5,43.0,29.91,NW,313,0.0,8.0,79,0.00,,,0.00,0,weatherlink.com 1.10,2013-04-12 03:52:00,
2013-04-11 21:07:00,49.1,43.0,29.91,NNW,344,0.0,3.0,79,0.00,,,0.00,0,weatherlink.com 1.10,2013-04-12 04:07:00,
2013-04-11 21:22:00,48.5,43.0,29.93,North,350,0.0,3.0,80,0.00,,,0.00,0,weatherlink.com 1.10,2013-04-12 04:22:00,
2013-04-11 21:37:00,48.5,43.0,29.92,NE,38,4.0,9.0,80,0.00,,,0.00,0,weatherlink.com 1.10,2013-04-12 04:37:00,
2013-04-11 21:52:00,48.5,43.0,29.92,NW,306,7.0,7.0,82,0.00,,,0.00,0,weatherlink.com 1.10,2013-04-12 04:52:00,
2013-04-11 22:07:00,48.6,43.0,29.93,NW,310,2.0,6.0,82,0.00,,,0.00,0,weatherlink.com 1.10,2013-04-12 05:07:00,
2013-04-11 22:22:00,48.5,43.0,29.93,North,355,1.0,4.0,82,0.00,,,0.00,0,weatherlink.com 1.10,2013-04-12 05:22:00,
2013-04-11 22:37:00,48.8,44.0,29.93,NNW,327,3.0,10.0,82,0.00,,,0.00,0,weatherlink.com 1.10,2013-04-12 05:37:00,
2013-04-11 22:52:00,48.9,44.0,29.92,NW,311,0.0,9.0,82,0.00,,,0.00,0,weatherlink.com 1.10,2013-04-12 05:52:00,
2013-04-11 23:07:00,48.5,43.0,29.93,NW,307,0.0,6.0,82,0.00,,,0.00,0,weatherlink.com 1.10,2013-04-12 06:07:00,
2013-04-11 23:22:00,48.0,43.0,29.93,NNW,342,1.0,3.0,82,0.00,,,0.00,0,weatherlink.com 1.10,2013-04-12 06:22:00,
2013-04-11 23:37:00,48.0,43.0,29.92,North,360,1.0,6.0,83,0.00,,,0.00,0,weatherlink.com 1.10,2013-04-12 06:37:00,
2013-04-11 23:52:00,47.9,43.0,29.92,NW,321,1.0,4.0,83,0.00,,,0.00,0,weatherlink.com 1.10,2013-04-12 06:52:00,